Cape Broyle, Canada
Current Conditions -  °F | °C
As of 3:00 PM on Monday 26 Jan 2015 (Local Time) from CYYT Reporting Station
Few Clouds Few Clouds  
Wind Chill:   Ceiling: Unl
Heat Index: 25°   Visibility: 15mi
Dew Point: 16°   Wind: 26mph
Humidity: 69%   Direction: 260°W
Pressure: 29.87"   Gusts: 40mph
Location:  47.08°N, 52.95°W
Report Text: CYYT 261800Z 26023G35KT 15SM FEW030 M04/M09 A2987 RMK CU2 SLP122
Loading
Personal Weather Stations






























Interactive Weather Map New forecast layout! Learn more

10-Day Weather Forecast

Advertisements
Track Severe Weather on mobile